Aeroporto :
LOGIN :

Iscrizione | Disclaimer

   EN    FR    IT 

 










Sommario :    VFR   VFR Marginale   IFR   IFR Intensivo   IFR Molto Intensivo
Visibilità : 
Base nubi : 
>= 8 km
>= 3000ft
5 / 8 km
1000 / 3000 ft
1500m / 5 km
500 / 1000 ft
800 / 1500m
200 / 500 ft
< 800m
< 200 ft
Simboli :   Temporali  Nebbia  Neve Forte  Precipitazioni Forti  Vento > 20 kt
SIGMETs :   Varie  Temporali  Ghiacco  Turbolenza  Onda orograficha  Ceneri Vulcaniche







- Altitudine del aeroporto : 297 ft
- Codice IATA : ODB


LEBA - Córdoba

ULTIMO METAR :
  • 231530Z VRB01KT 9999 FEW040 24/15 Q1023

METARs OBSOLETI :
  • 231500Z 29001KT 9999 FEW040 25/15 Q1023
  • 231430Z 05002KT 9999 FEW040 25/15 Q1023
  • 231400Z 03003KT 9999 FEW040 24/15 Q1023
  • 231330Z VRB02KT 9999 FEW035 24/16 Q1023
  • 231300Z 16004KT 080V220 9999 FEW035 25/16 Q1023

TAF TAF LEBA
Valido dal 23 a 15 ore il 24 a 00 ore UTC


231400Z 2315/2324 23004KT 9999 FEW040
PROB30
TEMPO 2316/2318 4000 SHRA SCT035TCU
Nessun NOTAM noto per questo aeroporto.



MetMap, La meteo Aeronautica in un colpo d'occhio ! - Copyright ORBIFLY Dicembre 2007 - Disclaimer

ORBIFLY MET'MAP TEAM :

Programmazione e sviluppo : Alexandra Zaïnal
Concezione e sviluppo : Baudouin d'Aumeries
Co-Programmazione e sviluppo : Marc-Olivier Méhu
Supporto tecnico e logistico : Manuel Goepfert
Aiuto per la traduzione : Arnaldo La Scala

Contatto : metmap@orbifly.com




FONTI E CREDITI :

   NOAA